Sidney, MT

2:49 AM MDT on October 01, 2014 (GMT -0600)
Watford City | Change Station
CLOSE
Current Station
Airport
Location: Watford City,
Elevation: 2110 ft
Nearby Weather Stations

Elev 2110 ft 47.80 °N, 103.26 °W | Updated 14 minutes ago

Overcast
Overcast
54 °F
Feels Like 54 °F
N
13
Wind Variable Wind from WNW
Gusts 25 mph

Today
High -- | Low -- °F
--% Chance of Precip.
Yesterday
High -- | Low -- °F
Precip. -- in
6:55 AM 6:35 PM
Waxing Crescent, 45% visible
Pressure 29.50 in
Visibility 4.0 miles
Clouds Mostly Cloudy 900 ft
Overcast 1400 ft
Dew Point 54 °F
Humidity 100%
Rainfall 0.00 in
Snow Depth Not available.
UV 0 out of 12
Pollen .40 out of 12
Air Quality Not available.
Flu Activity Not available.
METAR KS25 010835Z AUTO 29011G22KT 4SM BR BKN009 OVC014 12/12 A2950 RMK AO2

More Conditions Fewer Conditions

Pressure 29.50 in
Visibility 4.0 miles
Clouds Mostly Cloudy 900 ft
Overcast 1400 ft
Dew Point 54 °F
Humidity 100%
Rainfall 0.00 in
Snow Depth Not available.
UV 0 out of 12
Pollen .40 out of 12
Air Quality Not available.
Flu Activity Not available.
METAR KS25 010835Z AUTO 29011G22KT 4SM BR BKN009 OVC014 12/12 A2950 RMK AO2

More Conditions Fewer Conditions

10-Day Weather Forecast

Almanac

Astronomy

Oct. 01, 2014 Rise Set
Actual Time 6:55 AM MDT 6:35 PM MDT
Civil Twilight 6:25 AM MDT 7:06 PM MDT
Nautical Twilight 5:49 AM MDT 7:42 PM MDT
Astronomical Twilight 5:12 AM MDT 8:18 PM MDT
Moon 2:17 PM MDT 11:52 PM MDT
Length of Visible Light 12h 41m
Length of Day
11h 40m
Tomorrow will be 3m 24s shorter.
Waxing Crescent, 45% of the Moon is Illuminated
Today
Waxing Crescent
Oct 1
First Quarter
Oct 8
Full
Oct 15
Last Quarter
Oct 23
New

Today's Extremes

State Highs State Lows

Community

WunderPhotos

Upload Photos

1,757,902 photos uploaded!

Nearby

Snow Depth

Station Depth Elevation
Darkhorse Lake 1 in 8700 ft
Moss Peak 0 in 6780 ft
Nez Perce Camp 0 in 5650 ft
Deadman Creek 0 in 6450 ft
Beaver Creek 0 in 7850 ft

Earthquake Activity

City Distance Mag. Time & Date
No recent earthquake activity has been reported nearby.
Minimum magnitude displayed is 2.5.

Coastal Water Temperatures

Place Temperature
No Stations Reporting

Nearby Weather Stations